sensor_id;sensor_type;location;lat;lon;timestamp;P1;durP1;ratioP1;P2;durP2;ratioP2
52124;SDS011;38119;52.710;6.398;2022-07-18T00:00:17;9.95;;;5.05;;
52124;SDS011;38119;52.710;6.398;2022-07-18T00:02:43;8.35;;;4.75;;
52124;SDS011;38119;52.710;6.398;2022-07-18T00:05:08;10.65;;;5.30;;
52124;SDS011;38119;52.710;6.398;2022-07-18T00:07:34;10.77;;;5.47;;
52124;SDS011;38119;52.710;6.398;2022-07-18T00:10:00;7.80;;;5.18;;
52124;SDS011;38119;52.710;6.398;2022-07-18T00:12:28;9.25;;;5.25;;
52124;SDS011;38119;52.710;6.398;2022-07-18T00:14:54;10.93;;;5.25;;
52124;SDS011;38119;52.710;6.398;2022-07-18T00:17:21;7.82;;;5.00;;
52124;SDS011;38119;52.710;6.398;2022-07-18T00:19:47;8.95;;;5.63;;
52124;SDS011;38119;52.710;6.398;2022-07-18T00:22:13;8.95;;;5.15;;
52124;SDS011;38119;52.710;6.398;2022-07-18T00:24:38;10.27;;;5.57;;
52124;SDS011;38119;52.710;6.398;2022-07-18T00:27:04;8.02;;;5.22;;
52124;SDS011;38119;52.710;6.398;2022-07-18T00:29:32;8.93;;;5.90;;
52124;SDS011;38119;52.710;6.398;2022-07-18T00:32:02;9.88;;;6.03;;
52124;SDS011;38119;52.710;6.398;2022-07-18T00:34:29;10.52;;;6.20;;
52124;SDS011;38119;52.710;6.398;2022-07-18T00:36:54;10.13;;;5.50;;
52124;SDS011;38119;52.710;6.398;2022-07-18T00:39:20;10.00;;;5.78;;
52124;SDS011;38119;52.710;6.398;2022-07-18T00:41:46;9.82;;;6.05;;
52124;SDS011;38119;52.710;6.398;2022-07-18T00:44:17;9.98;;;5.85;;
52124;SDS011;38119;52.710;6.398;2022-07-18T00:46:48;11.05;;;6.28;;
52124;SDS011;38119;52.710;6.398;2022-07-18T00:49:15;8.90;;;5.97;;
52124;SDS011;38119;52.710;6.398;2022-07-18T00:51:41;10.75;;;6.10;;
52124;SDS011;38119;52.710;6.398;2022-07-18T00:54:07;11.55;;;6.00;;
52124;SDS011;38119;52.710;6.398;2022-07-18T00:56:32;9.88;;;6.03;;
52124;SDS011;38119;52.710;6.398;2022-07-18T00:58:58;10.98;;;6.07;;
52124;SDS011;38119;52.710;6.398;2022-07-18T01:01:24;10.07;;;6.13;;
52124;SDS011;38119;52.710;6.398;2022-07-18T01:04:08;11.25;;;6.80;;
52124;SDS011;38119;52.710;6.398;2022-07-18T01:06:36;11.60;;;6.60;;
52124;SDS011;38119;52.710;6.398;2022-07-18T01:09:02;10.38;;;5.97;;
52124;SDS011;38119;52.710;6.398;2022-07-18T01:11:28;11.25;;;6.35;;
52124;SDS011;38119;52.710;6.398;2022-07-18T01:13:54;10.32;;;6.32;;
52124;SDS011;38119;52.710;6.398;2022-07-18T01:16:20;8.25;;;5.80;;
52124;SDS011;38119;52.710;6.398;2022-07-18T01:18:47;8.65;;;6.35;;
52124;SDS011;38119;52.710;6.398;2022-07-18T01:21:14;12.27;;;6.43;;
52124;SDS011;38119;52.710;6.398;2022-07-18T01:23:40;10.70;;;6.50;;
52124;SDS011;38119;52.710;6.398;2022-07-18T01:26:06;8.90;;;6.05;;
52124;SDS011;38119;52.710;6.398;2022-07-18T01:28:32;11.15;;;6.63;;
52124;SDS011;38119;52.710;6.398;2022-07-18T01:30:58;11.40;;;6.53;;
52124;SDS011;38119;52.710;6.398;2022-07-18T01:33:23;11.77;;;5.93;;
52124;SDS011;38119;52.710;6.398;2022-07-18T01:35:49;9.07;;;6.10;;
52124;SDS011;38119;52.710;6.398;2022-07-18T01:38:27;10.15;;;6.50;;
52124;SDS011;38119;52.710;6.398;2022-07-18T01:40:54;9.68;;;6.15;;
52124;SDS011;38119;52.710;6.398;2022-07-18T01:43:21;10.93;;;6.35;;
52124;SDS011;38119;52.710;6.398;2022-07-18T01:45:50;9.57;;;6.30;;
52124;SDS011;38119;52.710;6.398;2022-07-18T01:48:16;9.82;;;6.32;;
52124;SDS011;38119;52.710;6.398;2022-07-18T01:50:44;12.18;;;6.57;;
52124;SDS011;38119;52.710;6.398;2022-07-18T01:53:12;9.68;;;6.40;;
52124;SDS011;38119;52.710;6.398;2022-07-18T01:55:38;8.57;;;5.90;;
52124;SDS011;38119;52.710;6.398;2022-07-18T01:58:04;10.43;;;6.28;;
52124;SDS011;38119;52.710;6.398;2022-07-18T02:00:30;10.73;;;6.82;;
52124;SDS011;38119;52.710;6.398;2022-07-18T02:02:56;12.82;;;6.47;;
52124;SDS011;38119;52.710;6.398;2022-07-18T02:05:22;9.52;;;7.05;;
52124;SDS011;38119;52.710;6.398;2022-07-18T02:07:48;12.07;;;7.03;;
52124;SDS011;38119;52.710;6.398;2022-07-18T02:10:15;10.98;;;6.75;;
52124;SDS011;38119;52.710;6.398;2022-07-18T02:12:44;11.10;;;7.03;;
52124;SDS011;38119;52.710;6.398;2022-07-18T02:15:10;10.52;;;6.70;;
52124;SDS011;38119;52.710;6.398;2022-07-18T02:17:38;12.52;;;6.78;;
52124;SDS011;38119;52.710;6.398;2022-07-18T02:20:05;12.27;;;7.50;;
52124;SDS011;38119;52.710;6.398;2022-07-18T02:22:36;11.38;;;7.00;;
52124;SDS011;38119;52.710;6.398;2022-07-18T02:25:02;9.98;;;6.75;;
52124;SDS011;38119;52.710;6.398;2022-07-18T02:27:28;12.82;;;7.38;;
52124;SDS011;38119;52.710;6.398;2022-07-18T02:29:54;11.48;;;7.32;;
52124;SDS011;38119;52.710;6.398;2022-07-18T02:32:19;11.55;;;7.07;;
52124;SDS011;38119;52.710;6.398;2022-07-18T02:34:47;12.38;;;7.47;;
52124;SDS011;38119;52.710;6.398;2022-07-18T02:37:13;11.05;;;6.88;;
52124;SDS011;38119;52.710;6.398;2022-07-18T02:39:39;11.73;;;7.22;;
52124;SDS011;38119;52.710;6.398;2022-07-18T02:42:08;12.45;;;7.07;;
52124;SDS011;38119;52.710;6.398;2022-07-18T02:44:34;11.02;;;7.10;;
52124;SDS011;38119;52.710;6.398;2022-07-18T02:47:00;12.13;;;7.13;;
52124;SDS011;38119;52.710;6.398;2022-07-18T02:49:26;12.10;;;7.45;;
52124;SDS011;38119;52.710;6.398;2022-07-18T02:52:03;10.95;;;7.35;;
52124;SDS011;38119;52.710;6.398;2022-07-18T02:54:31;12.05;;;7.05;;
52124;SDS011;38119;52.710;6.398;2022-07-18T02:56:58;10.70;;;7.32;;
52124;SDS011;38119;52.710;6.398;2022-07-18T02:59:24;11.35;;;7.55;;
52124;SDS011;38119;52.710;6.398;2022-07-18T03:01:51;11.95;;;7.38;;
52124;SDS011;38119;52.710;6.398;2022-07-18T03:04:17;11.23;;;7.40;;
52124;SDS011;38119;52.710;6.398;2022-07-18T03:06:44;11.35;;;7.50;;
52124;SDS011;38119;52.710;6.398;2022-07-18T03:09:10;10.77;;;7.13;;
52124;SDS011;38119;52.710;6.398;2022-07-18T03:11:36;11.98;;;7.30;;
52124;SDS011;38119;52.710;6.398;2022-07-18T03:14:01;12.75;;;8.10;;
52124;SDS011;38119;52.710;6.398;2022-07-18T03:16:27;11.93;;;7.85;;
52124;SDS011;38119;52.710;6.398;2022-07-18T03:18:53;15.70;;;8.68;;
52124;SDS011;38119;52.710;6.398;2022-07-18T03:21:19;13.15;;;8.05;;
52124;SDS011;38119;52.710;6.398;2022-07-18T03:23:44;12.35;;;7.50;;
52124;SDS011;38119;52.710;6.398;2022-07-18T03:26:10;13.80;;;7.65;;
52124;SDS011;38119;52.710;6.398;2022-07-18T03:28:36;13.35;;;8.55;;
52124;SDS011;38119;52.710;6.398;2022-07-18T03:31:02;12.02;;;7.95;;
52124;SDS011;38119;52.710;6.398;2022-07-18T03:33:28;12.40;;;7.50;;
52124;SDS011;38119;52.710;6.398;2022-07-18T03:35:54;11.90;;;7.63;;
52124;SDS011;38119;52.710;6.398;2022-07-18T03:38:20;12.93;;;7.90;;
52124;SDS011;38119;52.710;6.398;2022-07-18T03:40:45;10.73;;;7.78;;
52124;SDS011;38119;52.710;6.398;2022-07-18T03:43:14;15.80;;;8.65;;
52124;SDS011;38119;52.710;6.398;2022-07-18T03:45:40;13.25;;;8.30;;
52124;SDS011;38119;52.710;6.398;2022-07-18T03:48:05;13.43;;;8.50;;
52124;SDS011;38119;52.710;6.398;2022-07-18T03:50:31;14.02;;;8.32;;
52124;SDS011;38119;52.710;6.398;2022-07-18T03:52:57;12.82;;;7.82;;
52124;SDS011;38119;52.710;6.398;2022-07-18T03:55:22;11.65;;;8.07;;
52124;SDS011;38119;52.710;6.398;2022-07-18T03:57:48;13.10;;;7.78;;
52124;SDS011;38119;52.710;6.398;2022-07-18T04:00:14;14.45;;;8.80;;
52124;SDS011;38119;52.710;6.398;2022-07-18T04:02:41;13.75;;;8.55;;
52124;SDS011;38119;52.710;6.398;2022-07-18T04:05:10;13.77;;;9.15;;
52124;SDS011;38119;52.710;6.398;2022-07-18T04:07:37;14.95;;;8.75;;
52124;SDS011;38119;52.710;6.398;2022-07-18T04:10:03;12.95;;;8.50;;
52124;SDS011;38119;52.710;6.398;2022-07-18T04:12:31;12.85;;;7.95;;
52124;SDS011;38119;52.710;6.398;2022-07-18T04:14:57;14.60;;;8.10;;
52124;SDS011;38119;52.710;6.398;2022-07-18T04:17:23;13.07;;;8.13;;
52124;SDS011;38119;52.710;6.398;2022-07-18T04:19:52;13.75;;;8.50;;
52124;SDS011;38119;52.710;6.398;2022-07-18T04:22:17;12.95;;;8.35;;
52124;SDS011;38119;52.710;6.398;2022-07-18T04:24:43;14.10;;;8.55;;
52124;SDS011;38119;52.710;6.398;2022-07-18T04:27:09;13.50;;;8.25;;
52124;SDS011;38119;52.710;6.398;2022-07-18T04:29:34;16.15;;;8.70;;
52124;SDS011;38119;52.710;6.398;2022-07-18T04:32:02;12.10;;;8.13;;
52124;SDS011;38119;52.710;6.398;2022-07-18T04:34:28;15.40;;;8.25;;
52124;SDS011;38119;52.710;6.398;2022-07-18T04:36:54;14.63;;;8.38;;
52124;SDS011;38119;52.710;6.398;2022-07-18T04:39:19;13.05;;;8.27;;
52124;SDS011;38119;52.710;6.398;2022-07-18T04:41:46;12.07;;;7.32;;
52124;SDS011;38119;52.710;6.398;2022-07-18T04:44:12;11.77;;;7.53;;
52124;SDS011;38119;52.710;6.398;2022-07-18T04:46:38;12.73;;;7.57;;
52124;SDS011;38119;52.710;6.398;2022-07-18T04:49:04;15.32;;;8.00;;
52124;SDS011;38119;52.710;6.398;2022-07-18T04:51:29;10.25;;;7.13;;
52124;SDS011;38119;52.710;6.398;2022-07-18T04:53:55;11.82;;;7.35;;
52124;SDS011;38119;52.710;6.398;2022-07-18T04:56:22;13.75;;;6.75;;
52124;SDS011;38119;52.710;6.398;2022-07-18T04:58:47;10.85;;;6.68;;
52124;SDS011;38119;52.710;6.398;2022-07-18T05:01:13;10.38;;;7.00;;
52124;SDS011;38119;52.710;6.398;2022-07-18T05:03:40;11.57;;;6.53;;
52124;SDS011;38119;52.710;6.398;2022-07-18T05:06:06;11.02;;;6.97;;
52124;SDS011;38119;52.710;6.398;2022-07-18T05:08:32;10.40;;;6.25;;
52124;SDS011;38119;52.710;6.398;2022-07-18T05:10:57;10.20;;;6.32;;
52124;SDS011;38119;52.710;6.398;2022-07-18T05:13:23;10.50;;;5.75;;
52124;SDS011;38119;52.710;6.398;2022-07-18T05:15:49;9.50;;;5.93;;
52124;SDS011;38119;52.710;6.398;2022-07-18T05:18:14;12.55;;;6.63;;
52124;SDS011;38119;52.710;6.398;2022-07-18T05:20:40;10.40;;;6.13;;
52124;SDS011;38119;52.710;6.398;2022-07-18T05:23:06;9.07;;;6.10;;
52124;SDS011;38119;52.710;6.398;2022-07-18T05:25:32;13.13;;;6.10;;
52124;SDS011;38119;52.710;6.398;2022-07-18T05:27:58;12.23;;;5.82;;
52124;SDS011;38119;52.710;6.398;2022-07-18T05:30:23;12.32;;;6.40;;
52124;SDS011;38119;52.710;6.398;2022-07-18T05:32:53;10.43;;;5.53;;
52124;SDS011;38119;52.710;6.398;2022-07-18T05:35:19;11.80;;;5.93;;
52124;SDS011;38119;52.710;6.398;2022-07-18T05:37:48;13.27;;;5.40;;
52124;SDS011;38119;52.710;6.398;2022-07-18T05:40:16;9.52;;;5.40;;
52124;SDS011;38119;52.710;6.398;2022-07-18T05:42:41;12.48;;;5.55;;
52124;SDS011;38119;52.710;6.398;2022-07-18T05:45:07;11.95;;;5.38;;
52124;SDS011;38119;52.710;6.398;2022-07-18T05:47:34;8.32;;;5.47;;
52124;SDS011;38119;52.710;6.398;2022-07-18T05:49:59;8.70;;;4.97;;
52124;SDS011;38119;52.710;6.398;2022-07-18T05:52:27;11.18;;;5.85;;
52124;SDS011;38119;52.710;6.398;2022-07-18T05:54:52;10.40;;;4.85;;
52124;SDS011;38119;52.710;6.398;2022-07-18T05:57:18;8.75;;;5.22;;
52124;SDS011;38119;52.710;6.398;2022-07-18T05:59:44;11.23;;;4.90;;
52124;SDS011;38119;52.710;6.398;2022-07-18T06:02:10;9.15;;;4.82;;
52124;SDS011;38119;52.710;6.398;2022-07-18T06:04:36;10.27;;;4.97;;
52124;SDS011;38119;52.710;6.398;2022-07-18T06:07:02;8.82;;;5.10;;
52124;SDS011;38119;52.710;6.398;2022-07-18T06:09:28;15.02;;;6.03;;
52124;SDS011;38119;52.710;6.398;2022-07-18T06:11:58;8.15;;;4.60;;
52124;SDS011;38119;52.710;6.398;2022-07-18T06:14:26;10.88;;;4.22;;
52124;SDS011;38119;52.710;6.398;2022-07-18T06:16:52;8.23;;;4.63;;
52124;SDS011;38119;52.710;6.398;2022-07-18T06:19:18;10.80;;;4.93;;
52124;SDS011;38119;52.710;6.398;2022-07-18T06:21:43;7.80;;;4.43;;
52124;SDS011;38119;52.710;6.398;2022-07-18T06:24:09;7.90;;;4.57;;
52124;SDS011;38119;52.710;6.398;2022-07-18T06:26:35;10.25;;;4.97;;
52124;SDS011;38119;52.710;6.398;2022-07-18T06:29:00;11.23;;;4.90;;
52124;SDS011;38119;52.710;6.398;2022-07-18T06:31:26;8.70;;;4.78;;
52124;SDS011;38119;52.710;6.398;2022-07-18T06:33:51;10.00;;;5.10;;
52124;SDS011;38119;52.710;6.398;2022-07-18T06:36:17;10.45;;;4.88;;
52124;SDS011;38119;52.710;6.398;2022-07-18T06:38:43;8.07;;;4.50;;
52124;SDS011;38119;52.710;6.398;2022-07-18T06:41:10;9.52;;;4.70;;
52124;SDS011;38119;52.710;6.398;2022-07-18T06:43:36;9.48;;;4.13;;
52124;SDS011;38119;52.710;6.398;2022-07-18T06:46:03;8.75;;;4.38;;
52124;SDS011;38119;52.710;6.398;2022-07-18T06:48:29;8.98;;;4.93;;
52124;SDS011;38119;52.710;6.398;2022-07-18T06:50:59;9.25;;;5.18;;
52124;SDS011;38119;52.710;6.398;2022-07-18T06:53:26;9.88;;;4.68;;
52124;SDS011;38119;52.710;6.398;2022-07-18T06:55:53;10.70;;;4.38;;
52124;SDS011;38119;52.710;6.398;2022-07-18T06:58:19;6.95;;;4.43;;
52124;SDS011;38119;52.710;6.398;2022-07-18T07:00:44;9.45;;;4.50;;
52124;SDS011;38119;52.710;6.398;2022-07-18T07:03:10;8.50;;;4.03;;
52124;SDS011;38119;52.710;6.398;2022-07-18T07:05:36;6.80;;;3.90;;
52124;SDS011;38119;52.710;6.398;2022-07-18T07:08:02;9.77;;;3.95;;
52124;SDS011;38119;52.710;6.398;2022-07-18T07:10:28;8.02;;;3.95;;
52124;SDS011;38119;52.710;6.398;2022-07-18T07:12:53;6.13;;;3.45;;
52124;SDS011;38119;52.710;6.398;2022-07-18T07:15:20;7.70;;;3.65;;
52124;SDS011;38119;52.710;6.398;2022-07-18T07:17:47;7.38;;;4.03;;
52124;SDS011;38119;52.710;6.398;2022-07-18T07:20:15;11.43;;;3.78;;
52124;SDS011;38119;52.710;6.398;2022-07-18T07:22:48;8.02;;;3.85;;
52124;SDS011;38119;52.710;6.398;2022-07-18T07:25:16;10.30;;;4.30;;
52124;SDS011;38119;52.710;6.398;2022-07-18T07:27:43;7.50;;;3.80;;
52124;SDS011;38119;52.710;6.398;2022-07-18T07:30:09;8.43;;;4.13;;
52124;SDS011;38119;52.710;6.398;2022-07-18T07:32:37;8.13;;;4.40;;
52124;SDS011;38119;52.710;6.398;2022-07-18T07:35:07;8.95;;;3.75;;
52124;SDS011;38119;52.710;6.398;2022-07-18T07:37:36;5.75;;;3.85;;
52124;SDS011;38119;52.710;6.398;2022-07-18T07:40:02;10.95;;;4.30;;
52124;SDS011;38119;52.710;6.398;2022-07-18T07:42:29;6.18;;;3.95;;
52124;SDS011;38119;52.710;6.398;2022-07-18T07:44:57;9.25;;;3.92;;
52124;SDS011;38119;52.710;6.398;2022-07-18T07:47:23;8.10;;;4.10;;
52124;SDS011;38119;52.710;6.398;2022-07-18T07:49:50;9.45;;;4.18;;
52124;SDS011;38119;52.710;6.398;2022-07-18T07:52:16;6.85;;;3.50;;
52124;SDS011;38119;52.710;6.398;2022-07-18T07:54:44;7.18;;;3.50;;
52124;SDS011;38119;52.710;6.398;2022-07-18T07:57:11;5.32;;;3.28;;
52124;SDS011;38119;52.710;6.398;2022-07-18T07:59:37;7.60;;;3.30;;
52124;SDS011;38119;52.710;6.398;2022-07-18T08:02:03;7.32;;;3.25;;
52124;SDS011;38119;52.710;6.398;2022-07-18T08:04:28;8.02;;;3.40;;
52124;SDS011;38119;52.710;6.398;2022-07-18T08:06:55;9.73;;;3.58;;
52124;SDS011;38119;52.710;6.398;2022-07-18T08:09:20;6.57;;;3.20;;
52124;SDS011;38119;52.710;6.398;2022-07-18T08:11:47;7.85;;;3.03;;
52124;SDS011;38119;52.710;6.398;2022-07-18T08:14:13;5.15;;;3.17;;
52124;SDS011;38119;52.710;6.398;2022-07-18T08:16:39;6.30;;;3.10;;
52124;SDS011;38119;52.710;6.398;2022-07-18T08:19:04;7.18;;;2.72;;
52124;SDS011;38119;52.710;6.398;2022-07-18T08:21:30;5.28;;;2.65;;
52124;SDS011;38119;52.710;6.398;2022-07-18T08:23:56;4.15;;;2.70;;
52124;SDS011;38119;52.710;6.398;2022-07-18T08:26:21;7.78;;;2.55;;
52124;SDS011;38119;52.710;6.398;2022-07-18T08:28:47;5.88;;;3.05;;
52124;SDS011;38119;52.710;6.398;2022-07-18T08:31:13;8.05;;;2.53;;
52124;SDS011;38119;52.710;6.398;2022-07-18T08:33:39;6.70;;;2.30;;
52124;SDS011;38119;52.710;6.398;2022-07-18T08:36:05;5.68;;;2.80;;
52124;SDS011;38119;52.710;6.398;2022-07-18T08:38:33;6.85;;;3.40;;
52124;SDS011;38119;52.710;6.398;2022-07-18T08:40:59;5.90;;;2.85;;
52124;SDS011;38119;52.710;6.398;2022-07-18T08:43:26;6.10;;;2.60;;
52124;SDS011;38119;52.710;6.398;2022-07-18T08:45:54;6.15;;;2.72;;
52124;SDS011;38119;52.710;6.398;2022-07-18T08:48:21;5.13;;;2.20;;
52124;SDS011;38119;52.710;6.398;2022-07-18T08:50:48;6.38;;;2.50;;
52124;SDS011;38119;52.710;6.398;2022-07-18T08:53:15;5.20;;;2.45;;
52124;SDS011;38119;52.710;6.398;2022-07-18T08:55:42;8.13;;;2.40;;
52124;SDS011;38119;52.710;6.398;2022-07-18T08:58:09;7.50;;;2.50;;
52124;SDS011;38119;52.710;6.398;2022-07-18T09:00:39;7.68;;;2.95;;
52124;SDS011;38119;52.710;6.398;2022-07-18T09:03:05;6.53;;;2.72;;
52124;SDS011;38119;52.710;6.398;2022-07-18T09:05:31;5.65;;;2.42;;
52124;SDS011;38119;52.710;6.398;2022-07-18T09:08:07;7.57;;;2.20;;
52124;SDS011;38119;52.710;6.398;2022-07-18T09:13:16;5.45;;;2.30;;
52124;SDS011;38119;52.710;6.398;2022-07-18T09:16:10;6.35;;;2.50;;
52124;SDS011;38119;52.710;6.398;2022-07-18T09:18:39;8.48;;;2.35;;
52124;SDS011;38119;52.710;6.398;2022-07-18T09:21:14;6.22;;;2.20;;
52124;SDS011;38119;52.710;6.398;2022-07-18T09:23:44;6.60;;;2.45;;
52124;SDS011;38119;52.710;6.398;2022-07-18T09:26:36;4.80;;;2.00;;
52124;SDS011;38119;52.710;6.398;2022-07-18T09:29:07;3.80;;;2.00;;
52124;SDS011;38119;52.710;6.398;2022-07-18T09:31:49;3.60;;;1.85;;
52124;SDS011;38119;52.710;6.398;2022-07-18T09:34:35;4.80;;;2.17;;
52124;SDS011;38119;52.710;6.398;2022-07-18T09:37:02;8.70;;;2.08;;
52124;SDS011;38119;52.710;6.398;2022-07-18T09:39:28;4.88;;;1.88;;
52124;SDS011;38119;52.710;6.398;2022-07-18T09:41:59;7.03;;;1.95;;
52124;SDS011;38119;52.710;6.398;2022-07-18T09:44:38;3.78;;;2.03;;
52124;SDS011;38119;52.710;6.398;2022-07-18T09:47:04;7.25;;;1.90;;
52124;SDS011;38119;52.710;6.398;2022-07-18T09:49:32;5.72;;;2.30;;
52124;SDS011;38119;52.710;6.398;2022-07-18T09:52:06;5.93;;;1.92;;
52124;SDS011;38119;52.710;6.398;2022-07-18T09:54:50;8.13;;;2.30;;
52124;SDS011;38119;52.710;6.398;2022-07-18T09:57:28;6.57;;;2.05;;
52124;SDS011;38119;52.710;6.398;2022-07-18T09:59:54;5.88;;;2.50;;
52124;SDS011;38119;52.710;6.398;2022-07-18T10:02:21;6.72;;;2.13;;
52124;SDS011;38119;52.710;6.398;2022-07-18T10:04:47;4.53;;;2.20;;
52124;SDS011;38119;52.710;6.398;2022-07-18T10:07:17;3.70;;;2.30;;
52124;SDS011;38119;52.710;6.398;2022-07-18T10:09:43;4.15;;;1.98;;
52124;SDS011;38119;52.710;6.398;2022-07-18T10:12:10;9.50;;;2.20;;
52124;SDS011;38119;52.710;6.398;2022-07-18T10:14:36;7.35;;;2.35;;
52124;SDS011;38119;52.710;6.398;2022-07-18T10:17:04;8.80;;;2.30;;
52124;SDS011;38119;52.710;6.398;2022-07-18T10:19:29;8.93;;;2.67;;
52124;SDS011;38119;52.710;6.398;2022-07-18T10:22:00;4.65;;;2.30;;
52124;SDS011;38119;52.710;6.398;2022-07-18T10:24:26;5.75;;;2.30;;
52124;SDS011;38119;52.710;6.398;2022-07-18T10:27:14;4.38;;;2.58;;
52124;SDS011;38119;52.710;6.398;2022-07-18T10:32:34;5.30;;;2.30;;
52124;SDS011;38119;52.710;6.398;2022-07-18T10:35:00;5.75;;;2.00;;
52124;SDS011;38119;52.710;6.398;2022-07-18T10:37:26;5.75;;;2.17;;
52124;SDS011;38119;52.710;6.398;2022-07-18T10:40:02;4.97;;;2.10;;
52124;SDS011;38119;52.710;6.398;2022-07-18T10:45:50;3.75;;;2.15;;
52124;SDS011;38119;52.710;6.398;2022-07-18T10:51:01;5.07;;;2.10;;
52124;SDS011;38119;52.710;6.398;2022-07-18T10:56:18;4.53;;;2.47;;
52124;SDS011;38119;52.710;6.398;2022-07-18T10:58:44;4.65;;;2.42;;
52124;SDS011;38119;52.710;6.398;2022-07-18T11:01:12;4.50;;;2.13;;
52124;SDS011;38119;52.710;6.398;2022-07-18T11:03:42;5.35;;;2.55;;
52124;SDS011;38119;52.710;6.398;2022-07-18T11:06:08;4.95;;;2.30;;
52124;SDS011;38119;52.710;6.398;2022-07-18T11:08:34;4.40;;;2.53;;
52124;SDS011;38119;52.710;6.398;2022-07-18T11:15:59;5.93;;;2.60;;
52124;SDS011;38119;52.710;6.398;2022-07-18T11:18:33;4.68;;;2.42;;
52124;SDS011;38119;52.710;6.398;2022-07-18T11:23:47;5.33;;;2.73;;
52124;SDS011;38119;52.710;6.398;2022-07-18T11:26:15;4.93;;;2.55;;
52124;SDS011;38119;52.710;6.398;2022-07-18T11:28:42;4.63;;;2.67;;
52124;SDS011;38119;52.710;6.398;2022-07-18T11:31:09;5.82;;;2.95;;
52124;SDS011;38119;52.710;6.398;2022-07-18T11:33:40;5.97;;;2.80;;
52124;SDS011;38119;52.710;6.398;2022-07-18T11:36:11;6.07;;;2.67;;
52124;SDS011;38119;52.710;6.398;2022-07-18T11:38:38;8.60;;;2.58;;
52124;SDS011;38119;52.710;6.398;2022-07-18T11:41:10;4.85;;;2.85;;
52124;SDS011;38119;52.710;6.398;2022-07-18T11:43:36;3.40;;;2.72;;
52124;SDS011;38119;52.710;6.398;2022-07-18T11:46:03;4.88;;;2.67;;
52124;SDS011;38119;52.710;6.398;2022-07-18T11:48:37;5.13;;;2.80;;
52124;SDS011;38119;52.710;6.398;2022-07-18T11:51:10;4.55;;;2.65;;
52124;SDS011;38119;52.710;6.398;2022-07-18T11:53:43;6.35;;;2.80;;
52124;SDS011;38119;52.710;6.398;2022-07-18T11:56:17;5.00;;;2.83;;
52124;SDS011;38119;52.710;6.398;2022-07-18T11:58:46;7.28;;;3.08;;
52124;SDS011;38119;52.710;6.398;2022-07-18T12:01:16;3.80;;;2.60;;
52124;SDS011;38119;52.710;6.398;2022-07-18T12:03:46;4.32;;;2.90;;
52124;SDS011;38119;52.710;6.398;2022-07-18T12:06:14;5.07;;;2.78;;
52124;SDS011;38119;52.710;6.398;2022-07-18T12:08:43;5.95;;;3.10;;
52124;SDS011;38119;52.710;6.398;2022-07-18T12:11:12;3.88;;;2.78;;
52124;SDS011;38119;52.710;6.398;2022-07-18T12:13:45;5.50;;;2.95;;
52124;SDS011;38119;52.710;6.398;2022-07-18T12:16:39;4.70;;;2.70;;
52124;SDS011;38119;52.710;6.398;2022-07-18T12:21:51;4.35;;;2.80;;
52124;SDS011;38119;52.710;6.398;2022-07-18T12:24:31;5.75;;;2.70;;
52124;SDS011;38119;52.710;6.398;2022-07-18T12:29:59;6.45;;;2.92;;
52124;SDS011;38119;52.710;6.398;2022-07-18T12:32:42;4.78;;;2.88;;
52124;SDS011;38119;52.710;6.398;2022-07-18T12:40:27;4.03;;;2.80;;
52124;SDS011;38119;52.710;6.398;2022-07-18T12:45:40;3.88;;;2.28;;
52124;SDS011;38119;52.710;6.398;2022-07-18T12:48:08;4.88;;;2.85;;
52124;SDS011;38119;52.710;6.398;2022-07-18T12:50:36;3.30;;;2.45;;
52124;SDS011;38119;52.710;6.398;2022-07-18T12:53:02;4.38;;;2.67;;
52124;SDS011;38119;52.710;6.398;2022-07-18T12:55:28;3.22;;;2.22;;
52124;SDS011;38119;52.710;6.398;2022-07-18T12:57:54;4.30;;;2.67;;
52124;SDS011;38119;52.710;6.398;2022-07-18T13:00:19;5.85;;;2.38;;
52124;SDS011;38119;52.710;6.398;2022-07-18T13:02:45;3.90;;;2.55;;
52124;SDS011;38119;52.710;6.398;2022-07-18T13:05:12;4.70;;;2.80;;
52124;SDS011;38119;52.710;6.398;2022-07-18T13:07:39;3.40;;;2.53;;
52124;SDS011;38119;52.710;6.398;2022-07-18T13:10:05;3.63;;;2.40;;
52124;SDS011;38119;52.710;6.398;2022-07-18T13:12:32;3.20;;;2.28;;
52124;SDS011;38119;52.710;6.398;2022-07-18T13:14:58;8.07;;;2.65;;
52124;SDS011;38119;52.710;6.398;2022-07-18T13:17:23;3.28;;;2.40;;
52124;SDS011;38119;52.710;6.398;2022-07-18T13:19:51;8.95;;;3.00;;
52124;SDS011;38119;52.710;6.398;2022-07-18T13:22:16;7.10;;;2.63;;
52124;SDS011;38119;52.710;6.398;2022-07-18T13:24:44;4.28;;;2.75;;
52124;SDS011;38119;52.710;6.398;2022-07-18T13:27:10;4.13;;;2.65;;
52124;SDS011;38119;52.710;6.398;2022-07-18T13:29:36;3.47;;;2.40;;
52124;SDS011;38119;52.710;6.398;2022-07-18T13:32:04;5.00;;;2.58;;
52124;SDS011;38119;52.710;6.398;2022-07-18T13:34:29;4.47;;;2.58;;
52124;SDS011;38119;52.710;6.398;2022-07-18T13:36:55;4.35;;;2.42;;
52124;SDS011;38119;52.710;6.398;2022-07-18T13:39:21;4.95;;;2.40;;
52124;SDS011;38119;52.710;6.398;2022-07-18T13:41:48;4.57;;;2.60;;
52124;SDS011;38119;52.710;6.398;2022-07-18T13:44:15;3.75;;;2.45;;
52124;SDS011;38119;52.710;6.398;2022-07-18T13:46:41;4.25;;;2.63;;
52124;SDS011;38119;52.710;6.398;2022-07-18T13:49:13;4.60;;;2.65;;
52124;SDS011;38119;52.710;6.398;2022-07-18T13:51:41;3.70;;;2.25;;
52124;SDS011;38119;52.710;6.398;2022-07-18T13:54:07;4.53;;;2.42;;
52124;SDS011;38119;52.710;6.398;2022-07-18T13:56:33;7.22;;;2.65;;
52124;SDS011;38119;52.710;6.398;2022-07-18T13:58:59;5.30;;;2.60;;
52124;SDS011;38119;52.710;6.398;2022-07-18T14:01:24;4.47;;;2.35;;
52124;SDS011;38119;52.710;6.398;2022-07-18T14:03:50;3.97;;;2.40;;
52124;SDS011;38119;52.710;6.398;2022-07-18T14:06:16;3.40;;;2.42;;
52124;SDS011;38119;52.710;6.398;2022-07-18T14:08:42;6.00;;;2.58;;
52124;SDS011;38119;52.710;6.398;2022-07-18T14:11:10;3.50;;;2.30;;
52124;SDS011;38119;52.710;6.398;2022-07-18T14:13:36;4.93;;;2.65;;
52124;SDS011;38119;52.710;6.398;2022-07-18T14:16:02;4.55;;;2.60;;
52124;SDS011;38119;52.710;6.398;2022-07-18T14:18:27;5.22;;;2.33;;
52124;SDS011;38119;52.710;6.398;2022-07-18T14:20:53;5.05;;;2.47;;
52124;SDS011;38119;52.710;6.398;2022-07-18T14:23:19;3.47;;;2.45;;
52124;SDS011;38119;52.710;6.398;2022-07-18T14:25:45;3.72;;;2.40;;
52124;SDS011;38119;52.710;6.398;2022-07-18T14:28:11;3.13;;;2.13;;
52124;SDS011;38119;52.710;6.398;2022-07-18T14:30:37;4.45;;;2.42;;
52124;SDS011;38119;52.710;6.398;2022-07-18T14:33:04;4.18;;;2.10;;
52124;SDS011;38119;52.710;6.398;2022-07-18T14:35:30;4.55;;;2.47;;
52124;SDS011;38119;52.710;6.398;2022-07-18T14:37:56;4.97;;;2.80;;
52124;SDS011;38119;52.710;6.398;2022-07-18T14:40:23;2.58;;;1.98;;
52124;SDS011;38119;52.710;6.398;2022-07-18T14:42:49;4.63;;;2.30;;
52124;SDS011;38119;52.710;6.398;2022-07-18T14:45:16;3.65;;;2.40;;
52124;SDS011;38119;52.710;6.398;2022-07-18T14:47:42;3.40;;;2.30;;
52124;SDS011;38119;52.710;6.398;2022-07-18T14:50:07;5.85;;;2.63;;
52124;SDS011;38119;52.710;6.398;2022-07-18T14:52:35;4.70;;;2.40;;
52124;SDS011;38119;52.710;6.398;2022-07-18T14:55:02;3.88;;;2.55;;
52124;SDS011;38119;52.710;6.398;2022-07-18T14:57:28;5.22;;;2.45;;
52124;SDS011;38119;52.710;6.398;2022-07-18T14:59:54;5.57;;;2.20;;
52124;SDS011;38119;52.710;6.398;2022-07-18T15:02:20;4.88;;;2.38;;
52124;SDS011;38119;52.710;6.398;2022-07-18T15:04:46;6.47;;;2.67;;
52124;SDS011;38119;52.710;6.398;2022-07-18T15:07:12;5.72;;;2.72;;
52124;SDS011;38119;52.710;6.398;2022-07-18T15:09:38;4.47;;;2.65;;
52124;SDS011;38119;52.710;6.398;2022-07-18T15:12:03;3.30;;;2.10;;
52124;SDS011;38119;52.710;6.398;2022-07-18T15:14:29;4.90;;;2.47;;
52124;SDS011;38119;52.710;6.398;2022-07-18T15:16:55;4.60;;;2.50;;
52124;SDS011;38119;52.710;6.398;2022-07-18T15:19:21;5.47;;;2.50;;